sensor_id;sensor_type;location;lat;lon;timestamp;P1;durP1;ratioP1;P2;durP2;ratioP2
55292;SDS011;41157;53.560;10.098;2023-04-03T00:01:42;4.60;;;2.60;;
55292;SDS011;41157;53.560;10.098;2023-04-03T00:04:09;5.23;;;2.40;;
55292;SDS011;41157;53.560;10.098;2023-04-03T00:06:36;9.77;;;2.90;;
55292;SDS011;41157;53.560;10.098;2023-04-03T00:09:03;6.00;;;2.60;;
55292;SDS011;41157;53.560;10.098;2023-04-03T00:11:30;8.47;;;2.70;;
55292;SDS011;41157;53.560;10.098;2023-04-03T00:13:59;8.27;;;2.77;;
55292;SDS011;41157;53.560;10.098;2023-04-03T00:16:26;8.57;;;3.10;;
55292;SDS011;41157;53.560;10.098;2023-04-03T00:18:53;6.80;;;2.60;;
55292;SDS011;41157;53.560;10.098;2023-04-03T00:21:20;10.17;;;3.07;;
55292;SDS011;41157;53.560;10.098;2023-04-03T00:23:47;10.83;;;2.70;;
55292;SDS011;41157;53.560;10.098;2023-04-03T00:26:15;8.20;;;2.97;;
55292;SDS011;41157;53.560;10.098;2023-04-03T00:28:42;6.47;;;2.37;;
55292;SDS011;41157;53.560;10.098;2023-04-03T00:31:10;11.57;;;2.80;;
55292;SDS011;41157;53.560;10.098;2023-04-03T00:33:38;7.67;;;2.50;;
55292;SDS011;41157;53.560;10.098;2023-04-03T00:36:06;10.73;;;3.07;;
55292;SDS011;41157;53.560;10.098;2023-04-03T00:38:33;9.17;;;2.60;;
55292;SDS011;41157;53.560;10.098;2023-04-03T00:41:00;9.63;;;2.57;;
55292;SDS011;41157;53.560;10.098;2023-04-03T00:43:28;8.33;;;2.53;;
55292;SDS011;41157;53.560;10.098;2023-04-03T00:45:55;5.53;;;2.40;;
55292;SDS011;41157;53.560;10.098;2023-04-03T00:48:24;4.27;;;2.50;;
55292;SDS011;41157;53.560;10.098;2023-04-03T00:50:52;7.27;;;2.87;;
55292;SDS011;41157;53.560;10.098;2023-04-03T00:53:22;7.00;;;2.80;;
55292;SDS011;41157;53.560;10.098;2023-04-03T00:55:49;8.50;;;3.13;;
55292;SDS011;41157;53.560;10.098;2023-04-03T00:58:18;6.67;;;2.93;;
55292;SDS011;41157;53.560;10.098;2023-04-03T01:00:48;7.30;;;2.70;;
55292;SDS011;41157;53.560;10.098;2023-04-03T01:03:16;9.10;;;3.00;;
55292;SDS011;41157;53.560;10.098;2023-04-03T01:05:45;8.80;;;3.17;;
55292;SDS011;41157;53.560;10.098;2023-04-03T01:08:12;10.13;;;3.30;;
55292;SDS011;41157;53.560;10.098;2023-04-03T01:10:39;9.20;;;3.00;;
55292;SDS011;41157;53.560;10.098;2023-04-03T01:13:17;7.87;;;2.97;;
55292;SDS011;41157;53.560;10.098;2023-04-03T01:15:45;5.03;;;2.63;;
55292;SDS011;41157;53.560;10.098;2023-04-03T01:18:12;8.80;;;2.63;;
55292;SDS011;41157;53.560;10.098;2023-04-03T01:26:25;6.23;;;2.57;;
55292;SDS011;41157;53.560;10.098;2023-04-03T01:28:54;6.83;;;2.70;;
55292;SDS011;41157;53.560;10.098;2023-04-03T01:31:22;6.73;;;3.10;;
55292;SDS011;41157;53.560;10.098;2023-04-03T01:33:51;7.03;;;3.20;;
55292;SDS011;41157;53.560;10.098;2023-04-03T01:36:20;13.67;;;3.03;;
55292;SDS011;41157;53.560;10.098;2023-04-03T01:38:49;10.53;;;3.20;;
55292;SDS011;41157;53.560;10.098;2023-04-03T01:41:16;6.63;;;2.80;;
55292;SDS011;41157;53.560;10.098;2023-04-03T01:43:43;9.83;;;2.67;;
55292;SDS011;41157;53.560;10.098;2023-04-03T01:46:10;6.13;;;2.77;;
55292;SDS011;41157;53.560;10.098;2023-04-03T01:48:37;6.43;;;2.80;;
55292;SDS011;41157;53.560;10.098;2023-04-03T01:51:06;6.07;;;2.53;;
55292;SDS011;41157;53.560;10.098;2023-04-03T01:53:33;10.47;;;3.23;;
55292;SDS011;41157;53.560;10.098;2023-04-03T01:56:00;7.43;;;3.40;;
55292;SDS011;41157;53.560;10.098;2023-04-03T01:58:27;10.43;;;2.97;;
55292;SDS011;41157;53.560;10.098;2023-04-03T02:00:54;6.50;;;3.50;;
55292;SDS011;41157;53.560;10.098;2023-04-03T02:03:21;6.07;;;3.27;;
55292;SDS011;41157;53.560;10.098;2023-04-03T02:05:48;8.90;;;3.37;;
55292;SDS011;41157;53.560;10.098;2023-04-03T02:08:17;5.57;;;2.80;;
55292;SDS011;41157;53.560;10.098;2023-04-03T02:10:46;14.20;;;3.37;;
55292;SDS011;41157;53.560;10.098;2023-04-03T02:13:13;7.13;;;3.23;;
55292;SDS011;41157;53.560;10.098;2023-04-03T02:15:40;7.43;;;2.93;;
55292;SDS011;41157;53.560;10.098;2023-04-03T02:18:08;7.47;;;3.07;;
55292;SDS011;41157;53.560;10.098;2023-04-03T02:20:35;11.50;;;2.90;;
55292;SDS011;41157;53.560;10.098;2023-04-03T02:23:02;8.17;;;3.33;;
55292;SDS011;41157;53.560;10.098;2023-04-03T02:25:31;10.10;;;3.07;;
55292;SDS011;41157;53.560;10.098;2023-04-03T02:27:58;5.90;;;2.40;;
55292;SDS011;41157;53.560;10.098;2023-04-03T02:30:25;7.97;;;3.23;;
55292;SDS011;41157;53.560;10.098;2023-04-03T02:32:53;8.67;;;2.90;;
55292;SDS011;41157;53.560;10.098;2023-04-03T02:35:20;5.23;;;2.73;;
55292;SDS011;41157;53.560;10.098;2023-04-03T02:37:47;6.43;;;2.80;;
55292;SDS011;41157;53.560;10.098;2023-04-03T02:40:14;16.07;;;3.10;;
55292;SDS011;41157;53.560;10.098;2023-04-03T02:42:43;5.83;;;2.80;;
55292;SDS011;41157;53.560;10.098;2023-04-03T02:45:10;9.17;;;3.33;;
55292;SDS011;41157;53.560;10.098;2023-04-03T02:47:37;9.43;;;2.90;;
55292;SDS011;41157;53.560;10.098;2023-04-03T02:50:04;6.93;;;2.67;;
55292;SDS011;41157;53.560;10.098;2023-04-03T02:52:31;12.83;;;3.40;;
55292;SDS011;41157;53.560;10.098;2023-04-03T02:54:58;9.90;;;2.97;;
55292;SDS011;41157;53.560;10.098;2023-04-03T02:57:25;8.93;;;3.00;;
55292;SDS011;41157;53.560;10.098;2023-04-03T02:59:53;8.00;;;3.10;;
55292;SDS011;41157;53.560;10.098;2023-04-03T03:02:20;8.80;;;2.77;;
55292;SDS011;41157;53.560;10.098;2023-04-03T03:04:48;8.40;;;3.33;;
55292;SDS011;41157;53.560;10.098;2023-04-03T03:07:15;8.63;;;3.07;;
55292;SDS011;41157;53.560;10.098;2023-04-03T03:09:42;7.87;;;3.37;;
55292;SDS011;41157;53.560;10.098;2023-04-03T03:12:09;6.57;;;3.00;;
55292;SDS011;41157;53.560;10.098;2023-04-03T03:14:36;9.50;;;3.43;;
55292;SDS011;41157;53.560;10.098;2023-04-03T03:17:04;10.37;;;3.57;;
55292;SDS011;41157;53.560;10.098;2023-04-03T03:19:31;12.23;;;3.37;;
55292;SDS011;41157;53.560;10.098;2023-04-03T03:21:58;6.53;;;3.10;;
55292;SDS011;41157;53.560;10.098;2023-04-03T03:24:25;8.90;;;3.13;;
55292;SDS011;41157;53.560;10.098;2023-04-03T03:26:52;8.07;;;3.20;;
55292;SDS011;41157;53.560;10.098;2023-04-03T03:29:19;9.13;;;3.27;;
55292;SDS011;41157;53.560;10.098;2023-04-03T03:31:46;6.00;;;3.00;;
55292;SDS011;41157;53.560;10.098;2023-04-03T03:34:15;9.03;;;3.47;;
55292;SDS011;41157;53.560;10.098;2023-04-03T03:36:42;5.37;;;3.10;;
55292;SDS011;41157;53.560;10.098;2023-04-03T03:39:09;8.90;;;3.10;;
55292;SDS011;41157;53.560;10.098;2023-04-03T03:41:36;3.93;;;3.07;;
55292;SDS011;41157;53.560;10.098;2023-04-03T03:44:04;8.27;;;3.37;;
55292;SDS011;41157;53.560;10.098;2023-04-03T03:46:31;8.50;;;3.20;;
55292;SDS011;41157;53.560;10.098;2023-04-03T03:48:58;10.53;;;3.43;;
55292;SDS011;41157;53.560;10.098;2023-04-03T03:51:26;7.93;;;3.13;;
55292;SDS011;41157;53.560;10.098;2023-04-03T03:53:53;13.97;;;3.67;;
55292;SDS011;41157;53.560;10.098;2023-04-03T03:56:20;22.37;;;9.70;;
55292;SDS011;41157;53.560;10.098;2023-04-03T03:58:47;11.30;;;5.00;;
55292;SDS011;41157;53.560;10.098;2023-04-03T04:01:15;10.70;;;3.87;;
55292;SDS011;41157;53.560;10.098;2023-04-03T04:03:42;9.03;;;3.33;;
55292;SDS011;41157;53.560;10.098;2023-04-03T04:06:10;7.97;;;3.27;;
55292;SDS011;41157;53.560;10.098;2023-04-03T04:08:38;7.93;;;4.00;;
55292;SDS011;41157;53.560;10.098;2023-04-03T04:11:05;10.23;;;3.73;;
55292;SDS011;41157;53.560;10.098;2023-04-03T04:13:32;6.97;;;3.50;;
55292;SDS011;41157;53.560;10.098;2023-04-03T04:15:59;9.40;;;3.20;;
55292;SDS011;41157;53.560;10.098;2023-04-03T04:18:26;11.83;;;4.07;;
55292;SDS011;41157;53.560;10.098;2023-04-03T04:20:53;7.77;;;3.63;;
55292;SDS011;41157;53.560;10.098;2023-04-03T04:23:20;6.53;;;3.47;;
55292;SDS011;41157;53.560;10.098;2023-04-03T04:25:49;7.07;;;3.80;;
55292;SDS011;41157;53.560;10.098;2023-04-03T04:28:16;8.40;;;3.77;;
55292;SDS011;41157;53.560;10.098;2023-04-03T04:30:43;7.50;;;3.50;;
55292;SDS011;41157;53.560;10.098;2023-04-03T04:33:10;6.10;;;3.30;;
55292;SDS011;41157;53.560;10.098;2023-04-03T04:35:38;9.83;;;4.00;;
55292;SDS011;41157;53.560;10.098;2023-04-03T04:38:05;6.47;;;3.63;;
55292;SDS011;41157;53.560;10.098;2023-04-03T04:40:33;10.33;;;3.67;;
55292;SDS011;41157;53.560;10.098;2023-04-03T04:43:02;9.47;;;3.40;;
55292;SDS011;41157;53.560;10.098;2023-04-03T04:45:29;8.80;;;3.50;;
55292;SDS011;41157;53.560;10.098;2023-04-03T04:47:56;9.23;;;3.50;;
55292;SDS011;41157;53.560;10.098;2023-04-03T04:50:23;9.93;;;3.70;;
55292;SDS011;41157;53.560;10.098;2023-04-03T04:52:50;9.30;;;3.77;;
55292;SDS011;41157;53.560;10.098;2023-04-03T04:55:17;5.90;;;3.47;;
55292;SDS011;41157;53.560;10.098;2023-04-03T04:57:44;7.93;;;3.40;;
55292;SDS011;41157;53.560;10.098;2023-04-03T05:00:14;11.13;;;3.60;;
55292;SDS011;41157;53.560;10.098;2023-04-03T05:02:41;8.37;;;3.90;;
55292;SDS011;41157;53.560;10.098;2023-04-03T05:05:08;10.33;;;4.10;;
55292;SDS011;41157;53.560;10.098;2023-04-03T05:07:35;7.33;;;3.33;;
55292;SDS011;41157;53.560;10.098;2023-04-03T05:10:02;6.53;;;3.47;;
55292;SDS011;41157;53.560;10.098;2023-04-03T05:12:30;6.30;;;2.90;;
55292;SDS011;41157;53.560;10.098;2023-04-03T05:14:57;9.87;;;3.27;;
55292;SDS011;41157;53.560;10.098;2023-04-03T05:17:25;6.17;;;3.23;;
55292;SDS011;41157;53.560;10.098;2023-04-03T05:19:52;6.83;;;2.97;;
55292;SDS011;41157;53.560;10.098;2023-04-03T05:22:20;5.53;;;3.10;;
55292;SDS011;41157;53.560;10.098;2023-04-03T05:24:47;10.13;;;3.50;;
55292;SDS011;41157;53.560;10.098;2023-04-03T05:27:14;7.40;;;3.47;;
55292;SDS011;41157;53.560;10.098;2023-04-03T05:29:41;12.77;;;3.33;;
55292;SDS011;41157;53.560;10.098;2023-04-03T05:32:09;5.90;;;3.00;;
55292;SDS011;41157;53.560;10.098;2023-04-03T05:34:37;6.50;;;2.90;;
55292;SDS011;41157;53.560;10.098;2023-04-03T05:37:04;9.70;;;3.33;;
55292;SDS011;41157;53.560;10.098;2023-04-03T05:39:32;4.60;;;2.83;;
55292;SDS011;41157;53.560;10.098;2023-04-03T05:41:59;6.97;;;3.20;;
55292;SDS011;41157;53.560;10.098;2023-04-03T05:44:26;14.77;;;3.90;;
55292;SDS011;41157;53.560;10.098;2023-04-03T05:46:53;7.00;;;3.10;;
55292;SDS011;41157;53.560;10.098;2023-04-03T05:49:20;7.47;;;3.10;;
55292;SDS011;41157;53.560;10.098;2023-04-03T05:51:49;6.07;;;3.20;;
55292;SDS011;41157;53.560;10.098;2023-04-03T05:54:17;7.60;;;3.10;;
55292;SDS011;41157;53.560;10.098;2023-04-03T05:56:45;16.10;;;3.07;;
55292;SDS011;41157;53.560;10.098;2023-04-03T05:59:12;4.73;;;3.10;;
55292;SDS011;41157;53.560;10.098;2023-04-03T06:01:39;9.30;;;3.23;;
55292;SDS011;41157;53.560;10.098;2023-04-03T06:04:06;8.80;;;3.27;;
55292;SDS011;41157;53.560;10.098;2023-04-03T06:06:44;9.43;;;3.20;;
55292;SDS011;41157;53.560;10.098;2023-04-03T06:09:12;10.93;;;3.63;;
55292;SDS011;41157;53.560;10.098;2023-04-03T06:11:39;7.93;;;3.87;;
55292;SDS011;41157;53.560;10.098;2023-04-03T06:14:07;6.67;;;2.93;;
55292;SDS011;41157;53.560;10.098;2023-04-03T06:16:34;8.83;;;3.07;;
55292;SDS011;41157;53.560;10.098;2023-04-03T06:19:02;6.93;;;3.27;;
55292;SDS011;41157;53.560;10.098;2023-04-03T06:21:29;10.87;;;3.37;;
55292;SDS011;41157;53.560;10.098;2023-04-03T06:23:56;7.00;;;3.27;;
55292;SDS011;41157;53.560;10.098;2023-04-03T06:26:24;10.37;;;3.10;;
55292;SDS011;41157;53.560;10.098;2023-04-03T06:28:54;7.13;;;3.30;;
55292;SDS011;41157;53.560;10.098;2023-04-03T06:31:22;11.67;;;3.67;;
55292;SDS011;41157;53.560;10.098;2023-04-03T06:33:49;7.33;;;3.20;;
55292;SDS011;41157;53.560;10.098;2023-04-03T06:36:17;7.80;;;3.20;;
55292;SDS011;41157;53.560;10.098;2023-04-03T06:38:46;8.87;;;3.00;;
55292;SDS011;41157;53.560;10.098;2023-04-03T06:41:13;6.43;;;2.73;;
55292;SDS011;41157;53.560;10.098;2023-04-03T06:43:42;6.13;;;2.60;;
55292;SDS011;41157;53.560;10.098;2023-04-03T06:46:12;4.97;;;2.57;;
55292;SDS011;41157;53.560;10.098;2023-04-03T06:48:40;7.63;;;2.57;;
55292;SDS011;41157;53.560;10.098;2023-04-03T06:51:10;8.20;;;2.70;;
55292;SDS011;41157;53.560;10.098;2023-04-03T06:53:37;5.50;;;2.67;;
55292;SDS011;41157;53.560;10.098;2023-04-03T06:56:04;6.80;;;2.50;;
55292;SDS011;41157;53.560;10.098;2023-04-03T06:58:31;7.50;;;2.47;;
55292;SDS011;41157;53.560;10.098;2023-04-03T07:01:00;5.27;;;1.97;;
55292;SDS011;41157;53.560;10.098;2023-04-03T07:03:27;4.07;;;2.63;;
55292;SDS011;41157;53.560;10.098;2023-04-03T07:05:54;5.17;;;2.10;;
55292;SDS011;41157;53.560;10.098;2023-04-03T07:08:21;5.60;;;1.90;;
55292;SDS011;41157;53.560;10.098;2023-04-03T07:10:48;4.97;;;1.70;;
55292;SDS011;41157;53.560;10.098;2023-04-03T07:13:16;9.50;;;2.23;;
55292;SDS011;41157;53.560;10.098;2023-04-03T07:15:43;5.43;;;1.70;;
55292;SDS011;41157;53.560;10.098;2023-04-03T07:18:11;3.33;;;1.93;;
55292;SDS011;41157;53.560;10.098;2023-04-03T07:20:38;5.87;;;2.40;;
55292;SDS011;41157;53.560;10.098;2023-04-03T07:23:05;14.10;;;2.00;;
55292;SDS011;41157;53.560;10.098;2023-04-03T07:25:33;5.30;;;1.80;;
55292;SDS011;41157;53.560;10.098;2023-04-03T07:28:00;5.20;;;1.63;;
55292;SDS011;41157;53.560;10.098;2023-04-03T07:30:27;9.10;;;2.37;;
55292;SDS011;41157;53.560;10.098;2023-04-03T07:32:54;7.23;;;1.90;;
55292;SDS011;41157;53.560;10.098;2023-04-03T07:35:22;3.97;;;1.57;;
55292;SDS011;41157;53.560;10.098;2023-04-03T07:37:49;6.97;;;1.67;;
55292;SDS011;41157;53.560;10.098;2023-04-03T07:40:16;4.40;;;1.70;;
55292;SDS011;41157;53.560;10.098;2023-04-03T07:42:43;3.87;;;1.70;;
55292;SDS011;41157;53.560;10.098;2023-04-03T07:45:11;5.87;;;1.70;;
55292;SDS011;41157;53.560;10.098;2023-04-03T07:47:38;3.83;;;1.70;;
55292;SDS011;41157;53.560;10.098;2023-04-03T07:50:06;5.20;;;1.53;;
55292;SDS011;41157;53.560;10.098;2023-04-03T07:52:34;4.60;;;1.70;;
55292;SDS011;41157;53.560;10.098;2023-04-03T07:55:01;5.07;;;1.70;;
55292;SDS011;41157;53.560;10.098;2023-04-03T07:57:28;5.93;;;1.77;;
55292;SDS011;41157;53.560;10.098;2023-04-03T07:59:56;3.30;;;1.70;;
55292;SDS011;41157;53.560;10.098;2023-04-03T08:02:23;3.07;;;1.60;;
55292;SDS011;41157;53.560;10.098;2023-04-03T08:04:50;3.50;;;1.60;;
55292;SDS011;41157;53.560;10.098;2023-04-03T08:07:17;4.70;;;1.43;;
55292;SDS011;41157;53.560;10.098;2023-04-03T08:09:45;2.87;;;1.67;;
55292;SDS011;41157;53.560;10.098;2023-04-03T08:12:13;6.43;;;1.80;;
55292;SDS011;41157;53.560;10.098;2023-04-03T08:14:40;4.93;;;1.87;;
55292;SDS011;41157;53.560;10.098;2023-04-03T08:17:07;6.23;;;1.70;;
55292;SDS011;41157;53.560;10.098;2023-04-03T08:19:36;4.00;;;1.70;;
55292;SDS011;41157;53.560;10.098;2023-04-03T08:22:04;2.40;;;1.40;;
55292;SDS011;41157;53.560;10.098;2023-04-03T08:24:31;4.13;;;1.70;;
55292;SDS011;41157;53.560;10.098;2023-04-03T08:26:59;1.63;;;1.20;;
55292;SDS011;41157;53.560;10.098;2023-04-03T08:29:27;2.97;;;1.57;;
55292;SDS011;41157;53.560;10.098;2023-04-03T08:31:54;3.10;;;1.30;;
55292;SDS011;41157;53.560;10.098;2023-04-03T08:34:21;3.47;;;1.10;;
55292;SDS011;41157;53.560;10.098;2023-04-03T08:36:48;4.43;;;1.40;;
55292;SDS011;41157;53.560;10.098;2023-04-03T08:39:15;1.73;;;1.23;;
55292;SDS011;41157;53.560;10.098;2023-04-03T08:41:43;3.40;;;1.37;;
55292;SDS011;41157;53.560;10.098;2023-04-03T08:44:15;3.58;;;1.58;;
55292;SDS011;41157;53.560;10.098;2023-04-03T08:46:56;2.78;;;1.15;;
55292;SDS011;41157;53.560;10.098;2023-04-03T08:49:28;4.90;;;1.55;;
55292;SDS011;41157;53.560;10.098;2023-04-03T08:51:56;1.95;;;1.50;;
55292;SDS011;41157;53.560;10.098;2023-04-03T08:54:28;2.70;;;1.10;;
55292;SDS011;41157;53.560;10.098;2023-04-03T08:56:56;3.15;;;1.42;;
55292;SDS011;41157;53.560;10.098;2023-04-03T08:59:27;3.58;;;1.50;;
55292;SDS011;41157;53.560;10.098;2023-04-03T09:01:55;3.20;;;1.30;;
55292;SDS011;41157;53.560;10.098;2023-04-03T09:04:22;2.78;;;1.30;;
55292;SDS011;41157;53.560;10.098;2023-04-03T09:06:52;3.55;;;1.17;;
55292;SDS011;41157;53.560;10.098;2023-04-03T09:09:24;2.15;;;1.33;;
55292;SDS011;41157;53.560;10.098;2023-04-03T09:11:58;2.28;;;1.13;;
55292;SDS011;41157;53.560;10.098;2023-04-03T09:14:32;2.47;;;1.45;;
55292;SDS011;41157;53.560;10.098;2023-04-03T09:17:03;1.27;;;1.15;;
55292;SDS011;41157;53.560;10.098;2023-04-03T09:19:34;1.73;;;1.55;;
55292;SDS011;41157;53.560;10.098;2023-04-03T09:22:07;3.92;;;1.30;;
55292;SDS011;41157;53.560;10.098;2023-04-03T09:24:38;2.05;;;1.20;;
55292;SDS011;41157;53.560;10.098;2023-04-03T09:27:06;2.05;;;1.33;;
55292;SDS011;41157;53.560;10.098;2023-04-03T09:29:36;1.63;;;1.15;;
55292;SDS011;41157;53.560;10.098;2023-04-03T09:32:11;2.22;;;1.30;;
55292;SDS011;41157;53.560;10.098;2023-04-03T09:34:42;2.15;;;1.15;;
55292;SDS011;41157;53.560;10.098;2023-04-03T09:37:09;1.92;;;1.38;;
55292;SDS011;41157;53.560;10.098;2023-04-03T09:39:48;1.63;;;1.00;;
55292;SDS011;41157;53.560;10.098;2023-04-03T09:42:16;2.30;;;1.20;;
55292;SDS011;41157;53.560;10.098;2023-04-03T09:44:52;2.55;;;1.33;;
55292;SDS011;41157;53.560;10.098;2023-04-03T09:47:22;2.35;;;1.40;;
55292;SDS011;41157;53.560;10.098;2023-04-03T09:49:54;2.75;;;1.38;;
55292;SDS011;41157;53.560;10.098;2023-04-03T09:52:35;3.33;;;1.27;;
55292;SDS011;41157;53.560;10.098;2023-04-03T09:55:06;1.10;;;0.98;;
55292;SDS011;41157;53.560;10.098;2023-04-03T09:57:34;1.48;;;1.13;;
55292;SDS011;41157;53.560;10.098;2023-04-03T10:00:02;4.60;;;1.10;;
55292;SDS011;41157;53.560;10.098;2023-04-03T10:02:32;2.42;;;1.35;;
55292;SDS011;41157;53.560;10.098;2023-04-03T10:05:00;3.05;;;1.10;;
55292;SDS011;41157;53.560;10.098;2023-04-03T10:07:29;1.83;;;1.40;;
55292;SDS011;41157;53.560;10.098;2023-04-03T10:10:01;1.95;;;1.08;;
55292;SDS011;41157;53.560;10.098;2023-04-03T10:12:28;1.85;;;1.40;;
55292;SDS011;41157;53.560;10.098;2023-04-03T10:14:56;2.33;;;1.05;;
55292;SDS011;41157;53.560;10.098;2023-04-03T10:17:28;1.80;;;1.20;;
55292;SDS011;41157;53.560;10.098;2023-04-03T10:20:00;2.55;;;1.33;;
55292;SDS011;41157;53.560;10.098;2023-04-03T10:22:30;2.03;;;1.00;;
55292;SDS011;41157;53.560;10.098;2023-04-03T10:25:02;1.58;;;1.10;;
55292;SDS011;41157;53.560;10.098;2023-04-03T10:27:32;2.00;;;1.17;;
55292;SDS011;41157;53.560;10.098;2023-04-03T10:30:04;2.72;;;1.48;;
55292;SDS011;41157;53.560;10.098;2023-04-03T10:32:42;3.55;;;1.30;;
55292;SDS011;41157;53.560;10.098;2023-04-03T10:35:15;3.25;;;1.42;;
55292;SDS011;41157;53.560;10.098;2023-04-03T10:37:50;3.13;;;1.27;;
55292;SDS011;41157;53.560;10.098;2023-04-03T10:40:22;1.90;;;1.20;;
55292;SDS011;41157;53.560;10.098;2023-04-03T10:42:52;2.28;;;1.42;;
55292;SDS011;41157;53.560;10.098;2023-04-03T10:45:24;1.65;;;1.15;;
55292;SDS011;41157;53.560;10.098;2023-04-03T10:47:58;2.13;;;1.40;;
55292;SDS011;41157;53.560;10.098;2023-04-03T10:53:15;1.10;;;1.00;;
55292;SDS011;41157;53.560;10.098;2023-04-03T10:55:46;2.92;;;1.52;;
55292;SDS011;41157;53.560;10.098;2023-04-03T10:58:17;2.80;;;1.30;;
55292;SDS011;41157;53.560;10.098;2023-04-03T11:00:46;2.92;;;1.30;;
55292;SDS011;41157;53.560;10.098;2023-04-03T11:03:26;2.88;;;1.42;;
55292;SDS011;41157;53.560;10.098;2023-04-03T11:05:55;1.67;;;1.33;;
55292;SDS011;41157;53.560;10.098;2023-04-03T11:08:25;2.50;;;1.30;;
55292;SDS011;41157;53.560;10.098;2023-04-03T11:10:53;1.95;;;1.48;;
55292;SDS011;41157;53.560;10.098;2023-04-03T11:13:22;2.58;;;1.23;;
55292;SDS011;41157;53.560;10.098;2023-04-03T11:15:51;4.10;;;1.20;;
55292;SDS011;41157;53.560;10.098;2023-04-03T11:18:22;3.38;;;1.65;;
55292;SDS011;41157;53.560;10.098;2023-04-03T11:20:53;1.65;;;0.85;;
55292;SDS011;41157;53.560;10.098;2023-04-03T11:23:24;2.03;;;1.23;;
55292;SDS011;41157;53.560;10.098;2023-04-03T11:25:53;2.38;;;1.27;;
55292;SDS011;41157;53.560;10.098;2023-04-03T11:28:20;2.75;;;1.30;;
55292;SDS011;41157;53.560;10.098;2023-04-03T11:30:48;2.55;;;1.25;;
55292;SDS011;41157;53.560;10.098;2023-04-03T11:33:25;1.58;;;1.00;;
55292;SDS011;41157;53.560;10.098;2023-04-03T11:35:55;2.92;;;1.30;;
55292;SDS011;41157;53.560;10.098;2023-04-03T11:38:25;6.05;;;1.40;;
55292;SDS011;41157;53.560;10.098;2023-04-03T11:40:54;1.60;;;1.33;;
55292;SDS011;41157;53.560;10.098;2023-04-03T11:43:22;2.90;;;1.65;;
55292;SDS011;41157;53.560;10.098;2023-04-03T11:45:52;3.35;;;1.48;;
55292;SDS011;41157;53.560;10.098;2023-04-03T11:53:49;5.40;;;1.52;;
55292;SDS011;41157;53.560;10.098;2023-04-03T11:56:29;2.08;;;1.38;;
55292;SDS011;41157;53.560;10.098;2023-04-03T11:59:16;2.17;;;1.55;;
55292;SDS011;41157;53.560;10.098;2023-04-03T12:01:48;2.95;;;1.92;;
55292;SDS011;41157;53.560;10.098;2023-04-03T12:04:16;2.33;;;1.77;;
55292;SDS011;41157;53.560;10.098;2023-04-03T12:06:52;3.58;;;1.67;;
55292;SDS011;41157;53.560;10.098;2023-04-03T12:09:27;3.33;;;1.70;;
55292;SDS011;41157;53.560;10.098;2023-04-03T12:11:55;2.28;;;1.40;;
55292;SDS011;41157;53.560;10.098;2023-04-03T12:14:23;2.42;;;1.45;;
55292;SDS011;41157;53.560;10.098;2023-04-03T12:16:52;3.25;;;1.50;;
55292;SDS011;41157;53.560;10.098;2023-04-03T12:19:35;2.80;;;1.30;;
55292;SDS011;41157;53.560;10.098;2023-04-03T12:22:09;4.15;;;1.33;;
55292;SDS011;41157;53.560;10.098;2023-04-03T12:24:38;1.75;;;1.23;;
55292;SDS011;41157;53.560;10.098;2023-04-03T12:27:26;2.53;;;1.23;;
55292;SDS011;41157;53.560;10.098;2023-04-03T12:30:03;2.30;;;1.50;;
55292;SDS011;41157;53.560;10.098;2023-04-03T12:32:49;1.20;;;1.00;;
55292;SDS011;41157;53.560;10.098;2023-04-03T12:35:19;2.07;;;1.33;;
55292;SDS011;41157;53.560;10.098;2023-04-03T12:37:51;2.87;;;1.43;;
55292;SDS011;41157;53.560;10.098;2023-04-03T12:40:26;2.63;;;1.20;;
55292;SDS011;41157;53.560;10.098;2023-04-03T12:42:58;1.97;;;1.20;;
55292;SDS011;41157;53.560;10.098;2023-04-03T12:45:30;2.50;;;1.50;;
55292;SDS011;41157;53.560;10.098;2023-04-03T12:48:08;4.77;;;1.63;;
55292;SDS011;41157;53.560;10.098;2023-04-03T12:50:39;2.13;;;1.50;;
55292;SDS011;41157;53.560;10.098;2023-04-03T12:53:11;3.23;;;1.50;;
55292;SDS011;41157;53.560;10.098;2023-04-03T12:55:40;2.27;;;1.30;;
55292;SDS011;41157;53.560;10.098;2023-04-03T12:58:14;2.40;;;1.33;;
55292;SDS011;41157;53.560;10.098;2023-04-03T13:00:42;1.47;;;1.33;;
55292;SDS011;41157;53.560;10.098;2023-04-03T13:03:19;1.57;;;1.37;;
55292;SDS011;41157;53.560;10.098;2023-04-03T13:05:48;2.70;;;1.30;;
55292;SDS011;41157;53.560;10.098;2023-04-03T13:08:15;4.03;;;1.37;;
55292;SDS011;41157;53.560;10.098;2023-04-03T13:10:49;2.27;;;1.20;;
55292;SDS011;41157;53.560;10.098;2023-04-03T13:13:17;1.90;;;1.30;;
55292;SDS011;41157;53.560;10.098;2023-04-03T13:15:46;2.30;;;1.07;;
55292;SDS011;41157;53.560;10.098;2023-04-03T13:21:05;2.03;;;1.13;;
55292;SDS011;41157;53.560;10.098;2023-04-03T13:23:34;5.03;;;1.23;;
55292;SDS011;41157;53.560;10.098;2023-04-03T13:26:03;3.40;;;1.47;;
55292;SDS011;41157;53.560;10.098;2023-04-03T13:28:31;3.50;;;1.50;;
55292;SDS011;41157;53.560;10.098;2023-04-03T13:31:04;1.83;;;1.23;;
55292;SDS011;41157;53.560;10.098;2023-04-03T13:33:35;7.47;;;1.40;;
55292;SDS011;41157;53.560;10.098;2023-04-03T13:36:04;3.07;;;1.20;;
55292;SDS011;41157;53.560;10.098;2023-04-03T13:38:32;2.47;;;1.20;;
55292;SDS011;41157;53.560;10.098;2023-04-03T13:41:04;1.87;;;1.07;;
55292;SDS011;41157;53.560;10.098;2023-04-03T13:43:31;4.27;;;1.60;;
55292;SDS011;41157;53.560;10.098;2023-04-03T13:46:01;4.00;;;1.30;;
55292;SDS011;41157;53.560;10.098;2023-04-03T13:48:34;2.93;;;1.47;;
55292;SDS011;41157;53.560;10.098;2023-04-03T13:51:02;2.67;;;1.23;;
55292;SDS011;41157;53.560;10.098;2023-04-03T13:53:30;2.20;;;1.13;;
55292;SDS011;41157;53.560;10.098;2023-04-03T13:55:59;3.33;;;1.40;;
55292;SDS011;41157;53.560;10.098;2023-04-03T13:58:28;2.20;;;1.10;;
55292;SDS011;41157;53.560;10.098;2023-04-03T14:00:56;1.33;;;1.10;;
55292;SDS011;41157;53.560;10.098;2023-04-03T14:03:28;1.80;;;1.30;;
55292;SDS011;41157;53.560;10.098;2023-04-03T14:05:56;2.60;;;1.30;;
55292;SDS011;41157;53.560;10.098;2023-04-03T14:08:23;3.20;;;1.37;;
55292;SDS011;41157;53.560;10.098;2023-04-03T14:10:50;4.93;;;1.80;;
55292;SDS011;41157;53.560;10.098;2023-04-03T14:13:18;2.33;;;1.47;;
55292;SDS011;41157;53.560;10.098;2023-04-03T14:15:47;2.47;;;1.30;;
55292;SDS011;41157;53.560;10.098;2023-04-03T14:18:16;1.83;;;1.03;;
55292;SDS011;41157;53.560;10.098;2023-04-03T14:20:44;1.67;;;1.20;;
55292;SDS011;41157;53.560;10.098;2023-04-03T14:23:11;1.43;;;1.10;;
55292;SDS011;41157;53.560;10.098;2023-04-03T14:25:39;2.43;;;1.30;;
55292;SDS011;41157;53.560;10.098;2023-04-03T14:28:12;2.43;;;1.27;;
55292;SDS011;41157;53.560;10.098;2023-04-03T14:30:40;2.53;;;1.37;;
55292;SDS011;41157;53.560;10.098;2023-04-03T14:33:10;1.67;;;1.30;;
55292;SDS011;41157;53.560;10.098;2023-04-03T14:35:39;1.73;;;1.30;;
55292;SDS011;41157;53.560;10.098;2023-04-03T14:38:10;2.13;;;1.40;;
55292;SDS011;41157;53.560;10.098;2023-04-03T14:40:42;3.33;;;1.40;;
55292;SDS011;41157;53.560;10.098;2023-04-03T14:43:09;4.23;;;1.30;;
55292;SDS011;41157;53.560;10.098;2023-04-03T14:45:36;3.30;;;1.37;;
55292;SDS011;41157;53.560;10.098;2023-04-03T14:48:04;1.93;;;1.40;;
55292;SDS011;41157;53.560;10.098;2023-04-03T14:50:32;1.87;;;1.20;;
55292;SDS011;41157;53.560;10.098;2023-04-03T14:52:59;1.83;;;1.27;;
55292;SDS011;41157;53.560;10.098;2023-04-03T14:55:27;2.67;;;1.20;;
55292;SDS011;41157;53.560;10.098;2023-04-03T14:57:54;4.53;;;1.20;;
55292;SDS011;41157;53.560;10.098;2023-04-03T15:00:21;2.77;;;1.30;;